createdAt,value
2022-09-03T00:01:13.405Z,984.7
2022-09-03T00:03:39.484Z,984.7
2022-09-03T00:06:04.626Z,984.7
2022-09-03T00:08:30.696Z,984.6
2022-09-03T00:10:56.762Z,984.7
2022-09-03T00:13:22.861Z,984.7
2022-09-03T00:15:48.963Z,984.7
2022-09-03T00:18:15.066Z,984.7
2022-09-03T00:20:41.153Z,984.6
2022-09-03T00:23:06.272Z,984.6
2022-09-03T00:25:31.390Z,984.6
2022-09-03T00:27:56.514Z,984.7
2022-09-03T00:30:21.651Z,984.6
2022-09-03T00:32:46.722Z,984.5
2022-09-03T00:35:11.844Z,984.6
2022-09-03T00:37:37.942Z,984.6
2022-09-03T00:40:04.032Z,984.5
2022-09-03T00:42:30.137Z,984.6
2022-09-03T00:44:56.263Z,984.6
2022-09-03T00:47:22.320Z,984.6
2022-09-03T00:49:48.472Z,984.6
2022-09-03T00:52:14.522Z,984.6
2022-09-03T00:54:40.599Z,984.5
2022-09-03T00:57:06.694Z,984.6
2022-09-03T00:59:32.811Z,984.6
2022-09-03T01:01:58.869Z,984.6
2022-09-03T01:04:24.976Z,984.5
2022-09-03T01:06:50.077Z,984.6
2022-09-03T01:09:16.183Z,984.6
2022-09-03T01:11:42.280Z,984.5
2022-09-03T01:14:08.365Z,984.4
2022-09-03T01:16:34.476Z,984.4
2022-09-03T01:19:00.560Z,984.4
2022-09-03T01:21:26.659Z,984.5
2022-09-03T01:23:51.796Z,984.4
2022-09-03T01:26:16.896Z,984.5
2022-09-03T01:28:42.016Z,984.5
2022-09-03T01:31:07.134Z,984.4
2022-09-03T01:33:33.228Z,984.4
2022-09-03T01:35:59.314Z,984.5
2022-09-03T01:38:25.400Z,984.4
2022-09-03T01:40:51.500Z,984.5
2022-09-03T01:43:17.629Z,984.4
2022-09-03T01:45:43.732Z,984.5
2022-09-03T01:48:09.844Z,984.5
2022-09-03T01:50:35.888Z,984.5
2022-09-03T01:53:01.974Z,984.6
2022-09-03T01:55:28.074Z,984.5
2022-09-03T01:57:54.181Z,984.5
2022-09-03T02:00:20.264Z,984.6
2022-09-03T02:02:45.395Z,984.6
2022-09-03T02:05:11.483Z,984.6
2022-09-03T02:07:37.583Z,984.6
2022-09-03T02:10:03.669Z,984.7
2022-09-03T02:12:29.766Z,984.6
2022-09-03T02:14:55.853Z,984.6
2022-09-03T02:17:21.958Z,984.6
2022-09-03T02:19:48.075Z,984.6
2022-09-03T02:22:13.161Z,984.7
2022-09-03T02:24:38.270Z,984.6
2022-09-03T02:27:04.370Z,984.6
2022-09-03T02:29:30.492Z,984.6
2022-09-03T02:31:56.573Z,984.7
2022-09-03T02:34:22.657Z,984.7
2022-09-03T02:36:48.786Z,984.7
2022-09-03T02:39:14.842Z,984.7
2022-09-03T02:41:40.963Z,984.7
2022-09-03T02:44:07.069Z,984.8
2022-09-03T02:46:33.201Z,984.7
2022-09-03T02:48:59.220Z,984.6
2022-09-03T02:51:25.320Z,984.6
2022-09-03T02:53:51.425Z,984.6
2022-09-03T02:56:16.526Z,984.5
2022-09-03T02:58:42.614Z,984.6
2022-09-03T03:01:08.713Z,984.6
2022-09-03T03:03:34.837Z,984.6
2022-09-03T03:06:00.928Z,984.6
2022-09-03T03:08:27.002Z,984.6
2022-09-03T03:10:53.097Z,984.7
2022-09-03T03:13:18.219Z,984.7
2022-09-03T03:15:43.356Z,984.7
2022-09-03T03:18:08.459Z,984.8
2022-09-03T03:20:33.559Z,984.7
2022-09-03T03:22:58.681Z,984.8
2022-09-03T03:25:23.806Z,984.8
2022-09-03T03:27:49.895Z,984.7
2022-09-03T03:30:15.985Z,984.7
2022-09-03T03:32:42.096Z,984.8
2022-09-03T03:35:08.179Z,984.7
2022-09-03T03:37:34.323Z,984.7
2022-09-03T03:40:00.373Z,984.7
2022-09-03T03:42:26.451Z,984.7
2022-09-03T03:44:52.550Z,984.8
2022-09-03T03:47:18.639Z,984.7
2022-09-03T03:49:44.745Z,984.8
2022-09-03T03:52:10.834Z,984.8
2022-09-03T03:54:36.941Z,984.8
2022-09-03T03:57:02.043Z,984.8
2022-09-03T03:59:28.154Z,984.9
2022-09-03T04:01:54.298Z,984.9
2022-09-03T04:04:20.348Z,984.8
2022-09-03T04:06:46.464Z,984.8
2022-09-03T04:09:12.510Z,984.8
2022-09-03T04:11:38.614Z,984.9
2022-09-03T04:16:29.850Z,984.8
2022-09-03T04:18:54.958Z,984.8
2022-09-03T04:21:20.113Z,984.8
2022-09-03T04:23:45.177Z,984.8
2022-09-03T04:26:10.328Z,984.8
2022-09-03T04:28:36.399Z,984.8
2022-09-03T04:31:02.489Z,984.8
2022-09-03T04:33:28.574Z,984.7
2022-09-03T04:35:54.674Z,984.8
2022-09-03T04:38:20.773Z,984.8
2022-09-03T04:40:46.867Z,984.9
2022-09-03T04:43:12.967Z,984.8
2022-09-03T04:45:39.045Z,984.9
2022-09-03T04:48:05.142Z,984.9
2022-09-03T04:50:31.262Z,984.9
2022-09-03T04:52:57.332Z,984.9
2022-09-03T04:55:23.445Z,984.9
2022-09-03T04:57:48.550Z,985
2022-09-03T05:00:14.641Z,984.9
2022-09-03T05:02:40.737Z,984.9
2022-09-03T05:05:06.841Z,985
2022-09-03T05:07:32.962Z,984.9
2022-09-03T05:09:59.014Z,985
2022-09-03T05:12:25.114Z,984.9
2022-09-03T05:14:50.230Z,984.9
2022-09-03T05:17:15.353Z,985
2022-09-03T05:19:40.470Z,984.9
2022-09-03T05:22:05.572Z,985
2022-09-03T05:24:31.678Z,984.9
2022-09-03T05:26:57.782Z,984.8
2022-09-03T05:29:23.854Z,984.9
2022-09-03T05:31:49.956Z,984.9
2022-09-03T05:34:16.086Z,984.9
2022-09-03T05:36:42.167Z,984.8
2022-09-03T05:39:08.239Z,984.9
2022-09-03T05:41:34.333Z,984.9
2022-09-03T05:44:00.430Z,984.9
2022-09-03T05:46:25.543Z,984.9
2022-09-03T05:48:51.644Z,984.9
2022-09-03T05:51:17.746Z,984.9
2022-09-03T05:53:43.819Z,985
2022-09-03T05:56:09.910Z,985
2022-09-03T05:58:36.030Z,985
2022-09-03T06:01:02.135Z,985
2022-09-03T06:03:28.191Z,985.2
2022-09-03T06:05:54.296Z,985.1
2022-09-03T06:08:20.403Z,985
2022-09-03T06:10:45.517Z,985.1
2022-09-03T06:13:10.660Z,985.1
2022-09-03T06:15:35.750Z,985.1
2022-09-03T06:18:00.864Z,985.1
2022-09-03T06:20:25.995Z,985.2
2022-09-03T06:22:51.099Z,985.2
2022-09-03T06:25:17.189Z,985.2
2022-09-03T06:27:43.286Z,985.1
2022-09-03T06:30:09.372Z,985.1
2022-09-03T06:32:35.464Z,985.1
2022-09-03T06:35:01.573Z,985.2
2022-09-03T06:37:27.655Z,985.2
2022-09-03T06:39:53.788Z,985.2
2022-09-03T06:44:45.956Z,985.2
2022-09-03T06:47:12.061Z,985.2
2022-09-03T06:49:38.138Z,985.2
2022-09-03T06:52:04.244Z,985.1
2022-09-03T06:54:29.356Z,985.2
2022-09-03T06:56:55.456Z,985.2
2022-09-03T06:59:21.551Z,985.2
2022-09-03T07:01:47.628Z,985.2
2022-09-03T07:04:13.724Z,985.2
2022-09-03T07:06:39.848Z,985.2
2022-09-03T07:09:05.924Z,985.2
2022-09-03T07:11:32.026Z,985.2
2022-09-03T07:13:57.150Z,985.2
2022-09-03T07:16:22.267Z,985.2
2022-09-03T07:18:47.369Z,985.2
2022-09-03T07:21:12.479Z,985.2
2022-09-03T07:23:38.585Z,985.2
2022-09-03T07:26:04.686Z,985.2
2022-09-03T07:28:30.816Z,985.2
2022-09-03T07:30:56.876Z,985.2
2022-09-03T07:33:22.961Z,985.3
2022-09-03T07:35:49.048Z,985.2
2022-09-03T07:38:15.161Z,985.2
2022-09-03T07:40:41.244Z,985.2
2022-09-03T07:43:07.337Z,985.2
2022-09-03T07:45:33.431Z,985.2
2022-09-03T07:47:59.532Z,985.2
2022-09-03T07:50:25.649Z,985.2
2022-09-03T07:52:50.744Z,985.2
2022-09-03T07:55:16.884Z,985.3
2022-09-03T07:57:42.929Z,985.3
2022-09-03T08:00:09.025Z,985.2
2022-09-03T08:02:35.140Z,985.3
2022-09-03T08:05:01.207Z,985.3
2022-09-03T08:07:27.317Z,985.3
2022-09-03T08:09:52.471Z,985.4
2022-09-03T08:12:17.591Z,985.4
2022-09-03T08:14:42.717Z,985.4
2022-09-03T08:17:07.781Z,985.4
2022-09-03T08:19:33.873Z,985.5
2022-09-03T08:24:26.083Z,985.4
2022-09-03T08:26:52.158Z,985.4
2022-09-03T08:29:18.498Z,985.4
2022-09-03T08:31:44.347Z,985.4
2022-09-03T08:34:10.491Z,985.4
2022-09-03T08:36:36.546Z,985.4
2022-09-03T08:39:02.635Z,985.4
2022-09-03T08:41:28.718Z,985.4
2022-09-03T08:43:54.829Z,985.4
2022-09-03T08:46:20.920Z,985.4
2022-09-03T08:48:46.028Z,985.4
2022-09-03T08:51:12.118Z,985.4
2022-09-03T08:53:38.232Z,985.5
2022-09-03T08:56:04.320Z,985.5
2022-09-03T08:58:30.420Z,985.5
2022-09-03T09:00:56.502Z,985.5
2022-09-03T09:03:22.612Z,985.5
2022-09-03T09:05:48.698Z,985.5
2022-09-03T09:08:13.884Z,985.4
2022-09-03T09:10:38.932Z,985.5
2022-09-03T09:13:04.062Z,985.5
2022-09-03T09:15:29.175Z,985.5
2022-09-03T09:17:55.255Z,985.5
2022-09-03T09:20:21.370Z,985.6
2022-09-03T09:22:47.454Z,985.6
2022-09-03T09:25:13.548Z,985.6
2022-09-03T09:27:39.649Z,985.5
2022-09-03T09:30:05.746Z,985.6
2022-09-03T09:32:31.835Z,985.5
2022-09-03T09:34:57.936Z,985.6
2022-09-03T09:37:24.041Z,985.5
2022-09-03T09:39:50.118Z,985.5
2022-09-03T09:42:16.226Z,985.5
2022-09-03T09:44:42.321Z,985.5
2022-09-03T09:47:07.426Z,985.5
2022-09-03T09:49:33.512Z,985.4
2022-09-03T09:51:59.622Z,985.5
2022-09-03T09:54:25.715Z,985.4
2022-09-03T09:56:51.823Z,985.4
2022-09-03T09:59:17.910Z,985.4
2022-09-03T10:01:44.005Z,985.5
2022-09-03T10:04:09.128Z,985.5
2022-09-03T10:06:34.225Z,985.5
2022-09-03T10:08:59.353Z,985.4
2022-09-03T10:11:24.474Z,985.5
2022-09-03T10:13:50.559Z,985.4
2022-09-03T10:16:16.664Z,985.3
2022-09-03T10:18:42.755Z,985.4
2022-09-03T10:21:08.887Z,985.4
2022-09-03T10:23:34.936Z,985.3
2022-09-03T10:26:01.046Z,985.4
2022-09-03T10:28:27.117Z,985.4
2022-09-03T10:30:53.234Z,985.3
2022-09-03T10:33:19.330Z,985.2
2022-09-03T10:35:45.422Z,985.4
2022-09-03T10:38:11.529Z,985.4
2022-09-03T10:40:37.617Z,985.4
2022-09-03T10:43:02.721Z,985.4
2022-09-03T10:45:28.809Z,985.3
2022-09-03T10:47:54.919Z,985.3
2022-09-03T10:50:21.001Z,985.3
2022-09-03T10:52:47.117Z,985.3
2022-09-03T10:55:13.197Z,985.3
2022-09-03T10:57:39.289Z,985.3
2022-09-03T11:00:04.417Z,985.3
2022-09-03T11:02:29.526Z,985.3
2022-09-03T11:04:55.614Z,985.3
2022-09-03T11:07:21.714Z,985.2
2022-09-03T11:09:47.810Z,985.2
2022-09-03T11:12:13.895Z,985.2
2022-09-03T11:14:39.992Z,985.2
2022-09-03T11:17:06.107Z,985.1
2022-09-03T11:19:32.187Z,985
2022-09-03T11:21:58.268Z,985
2022-09-03T11:24:24.379Z,985
2022-09-03T11:26:50.479Z,985
2022-09-03T11:29:16.610Z,985
2022-09-03T11:31:42.663Z,984.9
2022-09-03T11:34:07.775Z,985
2022-09-03T11:36:33.866Z,984.9
2022-09-03T11:38:59.957Z,984.9
2022-09-03T11:41:26.056Z,984.9
2022-09-03T11:43:52.147Z,984.8
2022-09-03T11:46:18.257Z,984.9
2022-09-03T11:48:44.339Z,984.9
2022-09-03T11:51:09.500Z,984.9
2022-09-03T11:53:34.583Z,984.9
2022-09-03T11:55:59.720Z,984.9
2022-09-03T11:58:24.819Z,985
2022-09-03T12:00:49.928Z,985.1
2022-09-03T12:03:15.079Z,985.2
2022-09-03T12:05:41.142Z,985.3
2022-09-03T12:08:07.291Z,985.3
2022-09-03T12:10:33.320Z,985.3
2022-09-03T12:12:59.447Z,985.3
2022-09-03T12:15:25.517Z,985.3
2022-09-03T12:17:51.623Z,985.3
2022-09-03T12:20:17.728Z,985.3
2022-09-03T12:22:43.803Z,985.3
2022-09-03T12:25:09.895Z,985.3
2022-09-03T12:27:35.990Z,985.3
2022-09-03T12:30:02.094Z,985.4
2022-09-03T12:32:28.176Z,985.4
2022-09-03T12:34:53.290Z,985.5
2022-09-03T12:37:19.379Z,985.5
2022-09-03T12:39:45.474Z,985.6
2022-09-03T12:42:11.579Z,985.8
2022-09-03T12:44:38.694Z,985.9
2022-09-03T12:47:03.767Z,985.9
2022-09-03T12:49:29.869Z,986
2022-09-03T12:51:55.004Z,985.9
2022-09-03T12:54:20.105Z,986
2022-09-03T12:56:46.189Z,985.9
2022-09-03T12:59:11.308Z,985.9
2022-09-03T13:01:36.427Z,985.9
2022-09-03T13:04:02.538Z,985.8
2022-09-03T13:06:28.640Z,985.8
2022-09-03T13:08:54.712Z,985.8
2022-09-03T13:11:20.805Z,985.8
2022-09-03T13:13:46.898Z,985.8
2022-09-03T13:16:12.986Z,985.9
2022-09-03T13:18:39.106Z,986
2022-09-03T13:21:05.228Z,986.1
2022-09-03T13:23:31.293Z,986.1
2022-09-03T13:25:57.400Z,986.2
2022-09-03T13:28:23.491Z,986.3
2022-09-03T13:30:49.590Z,986.3
2022-09-03T13:33:14.681Z,986.2
2022-09-03T13:35:40.779Z,986.2
2022-09-03T13:38:06.862Z,986.3
2022-09-03T13:40:32.977Z,986.2
2022-09-03T13:42:59.061Z,986.2
2022-09-03T13:45:25.140Z,986.1
2022-09-03T13:47:51.241Z,986.1
2022-09-03T13:50:16.383Z,986.1
2022-09-03T13:52:41.524Z,986.1
2022-09-03T13:55:06.622Z,986.1
2022-09-03T13:57:32.698Z,986.1
2022-09-03T13:59:58.788Z,986.1
2022-09-03T14:02:24.895Z,986.1
2022-09-03T14:04:50.987Z,986.1
2022-09-03T14:07:17.072Z,986.1
2022-09-03T14:09:43.177Z,986
2022-09-03T14:12:09.263Z,985.9
2022-09-03T14:14:35.359Z,985.9
2022-09-03T14:17:01.461Z,986
2022-09-03T14:19:27.555Z,985.9
2022-09-03T14:21:53.662Z,985.8
2022-09-03T14:24:19.739Z,985.8
2022-09-03T14:26:44.839Z,985.7
2022-09-03T14:29:10.951Z,985.8
2022-09-03T14:31:37.044Z,985.8
2022-09-03T14:34:03.143Z,985.9
2022-09-03T14:36:29.266Z,985.9
2022-09-03T14:38:55.320Z,985.8
2022-09-03T14:41:20.442Z,985.8
2022-09-03T14:43:45.558Z,985.9
2022-09-03T14:46:11.658Z,985.8
2022-09-03T14:48:37.743Z,985.9
2022-09-03T14:51:03.835Z,985.9
2022-09-03T14:53:29.931Z,985.9
2022-09-03T14:55:56.041Z,985.9
2022-09-03T14:58:22.127Z,985.9
2022-09-03T15:00:48.237Z,985.9
2022-09-03T15:03:14.359Z,985.8
2022-09-03T15:05:40.437Z,985.8
2022-09-03T15:08:06.531Z,985.9
2022-09-03T15:10:32.655Z,985.9
2022-09-03T15:12:58.700Z,985.9
2022-09-03T15:15:23.815Z,985.9
2022-09-03T15:17:49.932Z,985.9
2022-09-03T15:20:16.009Z,985.9
2022-09-03T15:22:42.141Z,985.9
2022-09-03T15:25:08.242Z,985.8
2022-09-03T15:27:34.287Z,985.9
2022-09-03T15:30:00.378Z,985.8
2022-09-03T15:32:25.518Z,985.8
2022-09-03T15:34:50.620Z,985.8
2022-09-03T15:37:15.743Z,985.9
2022-09-03T15:39:40.925Z,985.9
2022-09-03T15:42:05.995Z,986
2022-09-03T15:44:31.087Z,986
2022-09-03T15:46:57.177Z,985.9
2022-09-03T15:49:23.272Z,985.9
2022-09-03T15:51:49.377Z,985.9
2022-09-03T15:54:15.461Z,985.9
2022-09-03T15:56:41.620Z,986
2022-09-03T15:59:07.666Z,986
2022-09-03T16:01:33.830Z,986
2022-09-03T16:03:59.860Z,986
2022-09-03T16:06:25.952Z,985.9
2022-09-03T16:08:52.073Z,985.9
2022-09-03T16:11:18.147Z,985.8
2022-09-03T16:13:44.259Z,985.8
2022-09-03T16:16:09.357Z,985.9
2022-09-03T16:18:35.467Z,985.9
2022-09-03T16:21:01.558Z,985.9
2022-09-03T16:23:27.674Z,985.9
2022-09-03T16:25:53.747Z,985.9
2022-09-03T16:28:19.861Z,986
2022-09-03T16:30:45.920Z,986
2022-09-03T16:33:11.043Z,986.1
2022-09-03T16:35:36.163Z,986
2022-09-03T16:38:01.270Z,986.1
2022-09-03T16:40:26.420Z,986.1
2022-09-03T16:42:52.497Z,986.1
2022-09-03T16:45:18.572Z,986
2022-09-03T16:47:44.703Z,985.9
2022-09-03T16:50:10.767Z,985.9
2022-09-03T16:52:36.851Z,986
2022-09-03T16:55:03.006Z,986
2022-09-03T16:57:29.069Z,985.9
2022-09-03T16:59:55.154Z,986
2022-09-03T17:02:21.230Z,986
2022-09-03T17:04:47.337Z,985.9
2022-09-03T17:07:13.467Z,986
2022-09-03T17:09:39.519Z,986
2022-09-03T17:12:04.629Z,986
2022-09-03T17:16:56.820Z,986
2022-09-03T17:19:22.918Z,986
2022-09-03T17:21:49.019Z,986
2022-09-03T17:24:15.106Z,986
2022-09-03T17:26:41.204Z,985.9
2022-09-03T17:29:07.306Z,986
2022-09-03T17:31:32.427Z,986
2022-09-03T17:33:57.531Z,986
2022-09-03T17:36:22.651Z,986
2022-09-03T17:38:47.755Z,986.1
2022-09-03T17:41:13.889Z,986.2
2022-09-03T17:43:39.943Z,986.1
2022-09-03T17:46:06.070Z,986.1
2022-09-03T17:48:32.149Z,986.1
2022-09-03T17:50:58.237Z,986.1
2022-09-03T17:53:24.342Z,986.2
2022-09-03T17:55:50.413Z,986.2
2022-09-03T17:58:16.530Z,986.2
2022-09-03T18:00:42.643Z,986.2
2022-09-03T18:03:08.724Z,986.3
2022-09-03T18:05:34.839Z,986.4
2022-09-03T18:08:00.893Z,986.3
2022-09-03T18:10:26.002Z,986.4
2022-09-03T18:12:52.108Z,986.5
2022-09-03T18:15:18.195Z,986.5
2022-09-03T18:17:44.298Z,986.5
2022-09-03T18:20:10.388Z,986.5
2022-09-03T18:22:36.504Z,986.6
2022-09-03T18:25:02.607Z,986.6
2022-09-03T18:27:27.705Z,986.6
2022-09-03T18:29:52.809Z,986.7
2022-09-03T18:32:18.918Z,986.7
2022-09-03T18:34:44.047Z,986.7
2022-09-03T18:37:09.172Z,986.7
2022-09-03T18:39:35.242Z,986.7
2022-09-03T18:42:01.354Z,986.8
2022-09-03T18:44:27.433Z,986.8
2022-09-03T18:46:53.533Z,986.8
2022-09-03T18:49:19.630Z,986.8
2022-09-03T18:51:45.759Z,986.8
2022-09-03T18:54:11.798Z,986.8
2022-09-03T18:56:37.911Z,986.8
2022-09-03T18:59:04.009Z,986.9
2022-09-03T19:01:30.096Z,986.9
2022-09-03T19:03:56.208Z,986.9
2022-09-03T19:06:22.312Z,986.9
2022-09-03T19:08:47.465Z,986.9
2022-09-03T19:11:13.495Z,986.9
2022-09-03T19:13:39.584Z,987
2022-09-03T19:16:05.712Z,987
2022-09-03T19:18:31.777Z,986.9
2022-09-03T19:23:23.968Z,987
2022-09-03T19:25:50.061Z,987
2022-09-03T19:28:16.174Z,987.1
2022-09-03T19:30:42.247Z,987
2022-09-03T19:33:07.404Z,987
2022-09-03T19:35:32.476Z,987.1
2022-09-03T19:37:57.605Z,987.1
2022-09-03T19:40:22.706Z,987.1
2022-09-03T19:42:48.818Z,987.1
2022-09-03T19:45:14.915Z,987.1
2022-09-03T19:47:41.012Z,987.1
2022-09-03T19:50:07.088Z,987.1
2022-09-03T19:52:33.221Z,987.2
2022-09-03T19:54:59.299Z,987.2
2022-09-03T19:57:25.375Z,987.3
2022-09-03T19:59:51.475Z,987.2
2022-09-03T20:02:17.586Z,987.2
2022-09-03T20:04:43.704Z,987.3
2022-09-03T20:07:09.759Z,987.4
2022-09-03T20:09:35.867Z,987.3
2022-09-03T20:12:00.990Z,987.3
2022-09-03T20:14:27.060Z,987.4
2022-09-03T20:16:53.152Z,987.4
2022-09-03T20:19:19.241Z,987.4
2022-09-03T20:21:45.378Z,987.4
2022-09-03T20:24:11.431Z,987.4
2022-09-03T20:26:37.547Z,987.4
2022-09-03T20:29:02.654Z,987.4
2022-09-03T20:31:27.760Z,987.5
2022-09-03T20:33:52.880Z,987.4
2022-09-03T20:36:17.991Z,987.5
2022-09-03T20:38:43.114Z,987.5
2022-09-03T20:41:08.215Z,987.6
2022-09-03T20:43:34.333Z,987.5
2022-09-03T20:46:00.415Z,987.5
2022-09-03T20:48:26.507Z,987.5
2022-09-03T20:50:52.606Z,987.6
2022-09-03T20:53:18.701Z,987.6
2022-09-03T20:55:44.808Z,987.7
2022-09-03T20:58:10.908Z,987.7
2022-09-03T21:00:36.983Z,987.7
2022-09-03T21:03:03.123Z,987.7
2022-09-03T21:05:29.197Z,987.6
2022-09-03T21:07:55.264Z,987.7
2022-09-03T21:10:21.389Z,987.7
2022-09-03T21:12:46.484Z,987.7
2022-09-03T21:15:12.625Z,987.7
2022-09-03T21:17:38.670Z,987.7
2022-09-03T21:20:04.770Z,987.7
2022-09-03T21:22:30.862Z,987.7
2022-09-03T21:24:56.997Z,987.7
2022-09-03T21:27:23.050Z,987.7
2022-09-03T21:29:48.173Z,987.7
2022-09-03T21:32:13.279Z,987.7
2022-09-03T21:34:39.379Z,987.8
2022-09-03T21:37:05.472Z,987.7
2022-09-03T21:39:30.603Z,987.7
2022-09-03T21:41:55.692Z,987.8
2022-09-03T21:44:21.828Z,987.7
2022-09-03T21:46:47.889Z,987.7
2022-09-03T21:49:13.981Z,987.7
2022-09-03T21:51:40.107Z,987.8
2022-09-03T21:54:06.179Z,987.8
2022-09-03T21:56:32.312Z,987.8
2022-09-03T21:58:58.369Z,987.8
2022-09-03T22:01:24.463Z,987.8
2022-09-03T22:03:49.587Z,987.7
2022-09-03T22:06:15.698Z,987.7
2022-09-03T22:08:41.772Z,987.8
2022-09-03T22:11:07.890Z,987.8
2022-09-03T22:13:34.000Z,987.8
2022-09-03T22:16:00.073Z,987.8
2022-09-03T22:18:26.145Z,987.8
2022-09-03T22:20:52.244Z,987.8
2022-09-03T22:23:18.332Z,987.9
2022-09-03T22:25:44.459Z,987.9
2022-09-03T22:28:10.540Z,987.9
2022-09-03T22:30:35.652Z,987.8
2022-09-03T22:33:00.810Z,987.9
2022-09-03T22:35:26.907Z,988
2022-09-03T22:37:52.972Z,988
2022-09-03T22:40:19.052Z,988
2022-09-03T22:42:45.142Z,988.1
2022-09-03T22:45:11.243Z,988
2022-09-03T22:47:37.329Z,988.1
2022-09-03T22:50:03.455Z,988.2
2022-09-03T22:52:29.554Z,988.1
2022-09-03T22:54:55.632Z,988.1
2022-09-03T22:57:21.734Z,988.1
2022-09-03T22:59:47.831Z,988.1
2022-09-03T23:02:13.938Z,988.2
2022-09-03T23:04:39.028Z,988.2
2022-09-03T23:07:05.121Z,988.2
2022-09-03T23:09:31.209Z,988.2
2022-09-03T23:11:57.320Z,988.2
2022-09-03T23:14:23.409Z,988.2
2022-09-03T23:16:49.494Z,988.2
2022-09-03T23:21:40.746Z,988.2
2022-09-03T23:24:05.835Z,988.2
2022-09-03T23:26:30.944Z,988.2
2022-09-03T23:28:56.055Z,988.2
2022-09-03T23:31:22.206Z,988.3
2022-09-03T23:33:48.259Z,988.2
2022-09-03T23:36:14.358Z,988.1
2022-09-03T23:38:40.439Z,988.2
2022-09-03T23:41:06.534Z,988.1
2022-09-03T23:43:32.642Z,988.2
2022-09-03T23:45:58.715Z,988.2
2022-09-03T23:48:24.822Z,988.1
2022-09-03T23:50:50.931Z,988.2
2022-09-03T23:53:17.013Z,988.2
2022-09-03T23:55:43.104Z,988.2
2022-09-03T23:58:09.214Z,988.2
